sensor_id;sensor_type;location;lat;lon;timestamp;temperature;humidity
33903;DHT22;20194;50.950;5.346;2023-03-01T00:01:14;2.60;1.00
33903;DHT22;20194;50.950;5.346;2023-03-01T00:03:41;2.70;1.00
33903;DHT22;20194;50.950;5.346;2023-03-01T00:06:07;2.90;1.00
33903;DHT22;20194;50.950;5.346;2023-03-01T00:08:33;2.90;1.00
33903;DHT22;20194;50.950;5.346;2023-03-01T00:11:10;2.70;1.00
33903;DHT22;20194;50.950;5.346;2023-03-01T00:13:37;2.80;1.00
33903;DHT22;20194;50.950;5.346;2023-03-01T00:16:05;2.80;1.00
33903;DHT22;20194;50.950;5.346;2023-03-01T00:18:31;2.90;1.00
33903;DHT22;20194;50.950;5.346;2023-03-01T00:20:57;3.00;1.00
33903;DHT22;20194;50.950;5.346;2023-03-01T00:23:23;3.00;1.00
33903;DHT22;20194;50.950;5.346;2023-03-01T00:25:49;3.10;1.00
33903;DHT22;20194;50.950;5.346;2023-03-01T00:28:15;3.20;1.00
33903;DHT22;20194;50.950;5.346;2023-03-01T00:30:42;3.20;1.00
33903;DHT22;20194;50.950;5.346;2023-03-01T00:33:08;3.20;1.00
33903;DHT22;20194;50.950;5.346;2023-03-01T00:35:34;3.20;1.00
33903;DHT22;20194;50.950;5.346;2023-03-01T00:38:00;3.20;1.00
33903;DHT22;20194;50.950;5.346;2023-03-01T00:40:31;3.20;1.00
33903;DHT22;20194;50.950;5.346;2023-03-01T00:42:57;3.20;1.00
33903;DHT22;20194;50.950;5.346;2023-03-01T00:45:23;3.10;1.00
33903;DHT22;20194;50.950;5.346;2023-03-01T00:47:50;3.10;1.00
33903;DHT22;20194;50.950;5.346;2023-03-01T00:50:17;2.90;1.00
33903;DHT22;20194;50.950;5.346;2023-03-01T00:52:43;2.80;1.00
33903;DHT22;20194;50.950;5.346;2023-03-01T00:55:09;2.50;1.00
33903;DHT22;20194;50.950;5.346;2023-03-01T00:57:36;2.40;1.00
33903;DHT22;20194;50.950;5.346;2023-03-01T01:00:02;2.40;1.00
33903;DHT22;20194;50.950;5.346;2023-03-01T01:02:29;2.50;1.00
33903;DHT22;20194;50.950;5.346;2023-03-01T01:04:57;2.60;1.00
33903;DHT22;20194;50.950;5.346;2023-03-01T01:07:22;2.70;1.00
33903;DHT22;20194;50.950;5.346;2023-03-01T01:09:49;2.80;1.00
33903;DHT22;20194;50.950;5.346;2023-03-01T01:12:15;2.90;1.00
33903;DHT22;20194;50.950;5.346;2023-03-01T01:14:40;3.00;1.00
33903;DHT22;20194;50.950;5.346;2023-03-01T01:17:06;3.00;1.00
33903;DHT22;20194;50.950;5.346;2023-03-01T01:19:32;3.00;1.00
33903;DHT22;20194;50.950;5.346;2023-03-01T01:21:57;3.00;1.00
33903;DHT22;20194;50.950;5.346;2023-03-01T01:24:23;3.00;1.00
33903;DHT22;20194;50.950;5.346;2023-03-01T01:26:49;3.00;1.00
33903;DHT22;20194;50.950;5.346;2023-03-01T01:29:15;2.90;1.00
33903;DHT22;20194;50.950;5.346;2023-03-01T01:31:42;2.80;1.00
33903;DHT22;20194;50.950;5.346;2023-03-01T01:34:16;2.70;1.00
33903;DHT22;20194;50.950;5.346;2023-03-01T01:36:43;2.70;1.00
33903;DHT22;20194;50.950;5.346;2023-03-01T01:39:10;2.40;1.00
33903;DHT22;20194;50.950;5.346;2023-03-01T01:41:40;2.40;1.00
33903;DHT22;20194;50.950;5.346;2023-03-01T01:46:38;2.60;1.00
33903;DHT22;20194;50.950;5.346;2023-03-01T01:49:30;2.60;1.00
33903;DHT22;20194;50.950;5.346;2023-03-01T01:57:16;2.60;1.00
33903;DHT22;20194;50.950;5.346;2023-03-01T01:59:45;2.40;1.00
33903;DHT22;20194;50.950;5.346;2023-03-01T02:02:11;2.50;1.00
33903;DHT22;20194;50.950;5.346;2023-03-01T02:04:38;2.50;1.00
33903;DHT22;20194;50.950;5.346;2023-03-01T02:09:39;2.60;1.00
33903;DHT22;20194;50.950;5.346;2023-03-01T02:12:06;2.60;1.00
33903;DHT22;20194;50.950;5.346;2023-03-01T02:14:32;2.60;1.00
33903;DHT22;20194;50.950;5.346;2023-03-01T02:16:58;2.60;1.00
33903;DHT22;20194;50.950;5.346;2023-03-01T02:19:44;2.60;1.00
33903;DHT22;20194;50.950;5.346;2023-03-01T02:22:23;2.60;1.00
33903;DHT22;20194;50.950;5.346;2023-03-01T02:27:19;2.50;1.00
33903;DHT22;20194;50.950;5.346;2023-03-01T02:29:50;2.50;1.00
33903;DHT22;20194;50.950;5.346;2023-03-01T02:32:16;2.50;1.00
33903;DHT22;20194;50.950;5.346;2023-03-01T02:34:53;2.50;1.00
33903;DHT22;20194;50.950;5.346;2023-03-01T02:37:20;2.40;1.00
33903;DHT22;20194;50.950;5.346;2023-03-01T02:39:55;2.40;1.00
33903;DHT22;20194;50.950;5.346;2023-03-01T02:42:27;2.40;1.00
33903;DHT22;20194;50.950;5.346;2023-03-01T02:44:54;2.40;1.00
33903;DHT22;20194;50.950;5.346;2023-03-01T02:47:20;2.40;1.00
33903;DHT22;20194;50.950;5.346;2023-03-01T02:49:45;2.10;1.00
33903;DHT22;20194;50.950;5.346;2023-03-01T02:55:13;2.00;1.00
33903;DHT22;20194;50.950;5.346;2023-03-01T02:57:41;2.10;1.00
33903;DHT22;20194;50.950;5.346;2023-03-01T03:00:12;2.10;1.00
33903;DHT22;20194;50.950;5.346;2023-03-01T03:02:49;2.00;1.00
33903;DHT22;20194;50.950;5.346;2023-03-01T03:05:18;2.10;1.00
33903;DHT22;20194;50.950;5.346;2023-03-01T03:07:46;2.10;1.00
33903;DHT22;20194;50.950;5.346;2023-03-01T03:10:15;2.30;1.00
33903;DHT22;20194;50.950;5.346;2023-03-01T03:12:41;2.20;1.00
33903;DHT22;20194;50.950;5.346;2023-03-01T03:15:09;2.30;1.00
33903;DHT22;20194;50.950;5.346;2023-03-01T03:17:36;2.30;1.00
33903;DHT22;20194;50.950;5.346;2023-03-01T03:20:06;1.90;1.00
33903;DHT22;20194;50.950;5.346;2023-03-01T03:22:36;1.90;1.00
33903;DHT22;20194;50.950;5.346;2023-03-01T03:25:03;1.70;1.00
33903;DHT22;20194;50.950;5.346;2023-03-01T03:27:29;1.80;1.00
33903;DHT22;20194;50.950;5.346;2023-03-01T03:29:57;1.70;1.00
33903;DHT22;20194;50.950;5.346;2023-03-01T03:32:23;1.70;1.00
33903;DHT22;20194;50.950;5.346;2023-03-01T03:34:48;1.60;1.00
33903;DHT22;20194;50.950;5.346;2023-03-01T03:37:17;1.50;1.00
33903;DHT22;20194;50.950;5.346;2023-03-01T03:40:01;1.60;1.00
33903;DHT22;20194;50.950;5.346;2023-03-01T03:42:26;1.60;1.00
33903;DHT22;20194;50.950;5.346;2023-03-01T03:44:52;1.50;1.00
33903;DHT22;20194;50.950;5.346;2023-03-01T03:47:18;1.40;1.00
33903;DHT22;20194;50.950;5.346;2023-03-01T03:49:44;1.40;1.00
33903;DHT22;20194;50.950;5.346;2023-03-01T03:52:10;1.50;1.00
33903;DHT22;20194;50.950;5.346;2023-03-01T03:54:40;1.50;1.00
33903;DHT22;20194;50.950;5.346;2023-03-01T03:57:06;1.60;1.00
33903;DHT22;20194;50.950;5.346;2023-03-01T03:59:32;1.50;1.00
33903;DHT22;20194;50.950;5.346;2023-03-01T04:01:57;1.60;1.00
33903;DHT22;20194;50.950;5.346;2023-03-01T04:04:23;1.40;1.00
33903;DHT22;20194;50.950;5.346;2023-03-01T04:06:49;1.40;1.00
33903;DHT22;20194;50.950;5.346;2023-03-01T04:09:14;1.40;1.00
33903;DHT22;20194;50.950;5.346;2023-03-01T04:11:40;1.40;1.00
33903;DHT22;20194;50.950;5.346;2023-03-01T04:14:06;1.40;1.00
33903;DHT22;20194;50.950;5.346;2023-03-01T04:16:32;1.40;1.00
33903;DHT22;20194;50.950;5.346;2023-03-01T04:18:57;1.40;1.00
33903;DHT22;20194;50.950;5.346;2023-03-01T04:21:28;1.40;1.00
33903;DHT22;20194;50.950;5.346;2023-03-01T04:23:54;1.50;1.00
33903;DHT22;20194;50.950;5.346;2023-03-01T04:26:20;1.40;1.00
33903;DHT22;20194;50.950;5.346;2023-03-01T04:28:46;1.40;1.00
33903;DHT22;20194;50.950;5.346;2023-03-01T04:31:15;1.40;1.00
33903;DHT22;20194;50.950;5.346;2023-03-01T04:36:11;1.60;1.00
33903;DHT22;20194;50.950;5.346;2023-03-01T04:38:38;1.50;1.00
33903;DHT22;20194;50.950;5.346;2023-03-01T04:41:09;1.50;1.00
33903;DHT22;20194;50.950;5.346;2023-03-01T04:43:35;1.50;1.00
33903;DHT22;20194;50.950;5.346;2023-03-01T04:46:03;1.50;1.00
33903;DHT22;20194;50.950;5.346;2023-03-01T04:48:30;1.40;1.00
33903;DHT22;20194;50.950;5.346;2023-03-01T04:50:57;1.30;1.00
33903;DHT22;20194;50.950;5.346;2023-03-01T04:53:23;1.30;1.00
33903;DHT22;20194;50.950;5.346;2023-03-01T04:55:50;1.40;1.00
33903;DHT22;20194;50.950;5.346;2023-03-01T04:58:16;1.40;1.00
33903;DHT22;20194;50.950;5.346;2023-03-01T05:00:41;1.40;1.00
33903;DHT22;20194;50.950;5.346;2023-03-01T05:03:08;1.40;1.00
33903;DHT22;20194;50.950;5.346;2023-03-01T05:05:36;1.50;1.00
33903;DHT22;20194;50.950;5.346;2023-03-01T05:08:05;1.50;1.00
33903;DHT22;20194;50.950;5.346;2023-03-01T05:10:33;1.40;1.00
33903;DHT22;20194;50.950;5.346;2023-03-01T05:13:00;1.40;1.00
33903;DHT22;20194;50.950;5.346;2023-03-01T05:15:28;1.50;1.00
33903;DHT22;20194;50.950;5.346;2023-03-01T05:17:56;1.40;1.00
33903;DHT22;20194;50.950;5.346;2023-03-01T05:20:24;1.40;1.00
33903;DHT22;20194;50.950;5.346;2023-03-01T05:22:51;1.40;1.00
33903;DHT22;20194;50.950;5.346;2023-03-01T05:25:17;1.40;1.00
33903;DHT22;20194;50.950;5.346;2023-03-01T05:27:43;1.50;1.00
33903;DHT22;20194;50.950;5.346;2023-03-01T05:30:09;1.30;1.00
33903;DHT22;20194;50.950;5.346;2023-03-01T05:32:44;1.30;1.00
33903;DHT22;20194;50.950;5.346;2023-03-01T05:35:12;1.40;1.00
33903;DHT22;20194;50.950;5.346;2023-03-01T05:37:42;0.90;1.00
33903;DHT22;20194;50.950;5.346;2023-03-01T05:40:11;0.90;1.00
33903;DHT22;20194;50.950;5.346;2023-03-01T05:42:45;1.10;1.00
33903;DHT22;20194;50.950;5.346;2023-03-01T05:45:12;1.10;1.00
33903;DHT22;20194;50.950;5.346;2023-03-01T05:47:42;1.00;1.00
33903;DHT22;20194;50.950;5.346;2023-03-01T05:50:20;1.00;1.00
33903;DHT22;20194;50.950;5.346;2023-03-01T05:52:51;1.00;1.00
33903;DHT22;20194;50.950;5.346;2023-03-01T05:55:20;1.00;1.00
33903;DHT22;20194;50.950;5.346;2023-03-01T05:57:47;1.00;1.00
33903;DHT22;20194;50.950;5.346;2023-03-01T06:00:14;1.00;1.00
33903;DHT22;20194;50.950;5.346;2023-03-01T06:02:40;0.80;1.00
33903;DHT22;20194;50.950;5.346;2023-03-01T06:05:08;0.80;1.00
33903;DHT22;20194;50.950;5.346;2023-03-01T06:07:34;0.70;1.00
33903;DHT22;20194;50.950;5.346;2023-03-01T06:10:01;0.80;1.00
33903;DHT22;20194;50.950;5.346;2023-03-01T06:12:31;0.80;1.00
33903;DHT22;20194;50.950;5.346;2023-03-01T06:14:56;0.90;1.00
33903;DHT22;20194;50.950;5.346;2023-03-01T06:17:22;0.90;1.00
33903;DHT22;20194;50.950;5.346;2023-03-01T06:19:48;0.90;1.00
33903;DHT22;20194;50.950;5.346;2023-03-01T06:22:14;0.80;1.00
33903;DHT22;20194;50.950;5.346;2023-03-01T06:24:39;0.90;1.00
33903;DHT22;20194;50.950;5.346;2023-03-01T06:27:05;0.90;1.00
33903;DHT22;20194;50.950;5.346;2023-03-01T06:29:31;0.90;1.00
33903;DHT22;20194;50.950;5.346;2023-03-01T06:31:57;0.90;1.00
33903;DHT22;20194;50.950;5.346;2023-03-01T06:34:23;0.90;1.00
33903;DHT22;20194;50.950;5.346;2023-03-01T06:36:48;1.00;1.00
33903;DHT22;20194;50.950;5.346;2023-03-01T06:39:14;1.00;1.00
33903;DHT22;20194;50.950;5.346;2023-03-01T06:41:40;0.90;1.00
33903;DHT22;20194;50.950;5.346;2023-03-01T06:44:05;0.80;1.00
33903;DHT22;20194;50.950;5.346;2023-03-01T06:46:31;0.60;1.00
33903;DHT22;20194;50.950;5.346;2023-03-01T06:48:57;0.50;1.00
33903;DHT22;20194;50.950;5.346;2023-03-01T06:51:22;0.50;1.00
33903;DHT22;20194;50.950;5.346;2023-03-01T06:53:48;0.40;1.00
33903;DHT22;20194;50.950;5.346;2023-03-01T06:56:14;0.50;1.00
33903;DHT22;20194;50.950;5.346;2023-03-01T06:58:40;0.50;1.00
33903;DHT22;20194;50.950;5.346;2023-03-01T07:01:07;0.60;1.00
33903;DHT22;20194;50.950;5.346;2023-03-01T07:03:33;0.50;1.00
33903;DHT22;20194;50.950;5.346;2023-03-01T07:05:58;0.50;1.00
33903;DHT22;20194;50.950;5.346;2023-03-01T07:08:25;0.40;1.00
33903;DHT22;20194;50.950;5.346;2023-03-01T07:10:57;0.50;1.00
33903;DHT22;20194;50.950;5.346;2023-03-01T07:13:23;0.50;1.00
33903;DHT22;20194;50.950;5.346;2023-03-01T07:15:49;0.50;1.00
33903;DHT22;20194;50.950;5.346;2023-03-01T07:18:15;0.60;1.00
33903;DHT22;20194;50.950;5.346;2023-03-01T07:20:40;0.60;1.00
33903;DHT22;20194;50.950;5.346;2023-03-01T07:23:06;0.70;1.00
33903;DHT22;20194;50.950;5.346;2023-03-01T07:25:32;0.60;1.00
33903;DHT22;20194;50.950;5.346;2023-03-01T07:27:58;0.70;1.00
33903;DHT22;20194;50.950;5.346;2023-03-01T07:30:24;0.70;1.00
33903;DHT22;20194;50.950;5.346;2023-03-01T07:32:55;0.60;1.00
33903;DHT22;20194;50.950;5.346;2023-03-01T07:35:21;0.70;1.00
33903;DHT22;20194;50.950;5.346;2023-03-01T07:37:47;0.60;1.20
33903;DHT22;20194;50.950;5.346;2023-03-01T07:40:13;0.60;1.00
33903;DHT22;20194;50.950;5.346;2023-03-01T07:42:38;0.50;6.20
33903;DHT22;20194;50.950;5.346;2023-03-01T07:45:05;0.60;3.00
33903;DHT22;20194;50.950;5.346;2023-03-01T07:47:31;0.80;1.70
33903;DHT22;20194;50.950;5.346;2023-03-01T07:49:57;0.80;1.10
33903;DHT22;20194;50.950;5.346;2023-03-01T07:52:23;0.90;1.70
33903;DHT22;20194;50.950;5.346;2023-03-01T07:54:49;0.70;2.70
33903;DHT22;20194;50.950;5.346;2023-03-01T07:57:15;0.90;5.00
33903;DHT22;20194;50.950;5.346;2023-03-01T07:59:40;1.10;1.50
33903;DHT22;20194;50.950;5.346;2023-03-01T08:02:06;1.20;1.00
33903;DHT22;20194;50.950;5.346;2023-03-01T08:04:32;1.50;1.00
33903;DHT22;20194;50.950;5.346;2023-03-01T08:06:58;1.70;1.00
33903;DHT22;20194;50.950;5.346;2023-03-01T08:09:24;1.80;1.00
33903;DHT22;20194;50.950;5.346;2023-03-01T08:11:50;2.00;1.00
33903;DHT22;20194;50.950;5.346;2023-03-01T08:14:16;2.10;1.00
33903;DHT22;20194;50.950;5.346;2023-03-01T08:16:42;1.90;1.00
33903;DHT22;20194;50.950;5.346;2023-03-01T08:19:10;1.90;1.00
33903;DHT22;20194;50.950;5.346;2023-03-01T08:21:36;2.00;1.00
33903;DHT22;20194;50.950;5.346;2023-03-01T08:24:03;2.10;1.00
33903;DHT22;20194;50.950;5.346;2023-03-01T08:26:31;2.00;1.00
33903;DHT22;20194;50.950;5.346;2023-03-01T08:28:57;1.80;1.00
33903;DHT22;20194;50.950;5.346;2023-03-01T08:31:31;1.80;1.00
33903;DHT22;20194;50.950;5.346;2023-03-01T08:34:00;1.90;1.00
33903;DHT22;20194;50.950;5.346;2023-03-01T08:36:28;1.90;1.00
33903;DHT22;20194;50.950;5.346;2023-03-01T08:38:54;2.20;1.00
33903;DHT22;20194;50.950;5.346;2023-03-01T08:41:20;2.50;1.00
33903;DHT22;20194;50.950;5.346;2023-03-01T08:43:46;2.80;1.00
33903;DHT22;20194;50.950;5.346;2023-03-01T08:46:12;3.00;1.00
33903;DHT22;20194;50.950;5.346;2023-03-01T08:48:38;3.40;1.00
33903;DHT22;20194;50.950;5.346;2023-03-01T08:51:16;3.60;1.00
33903;DHT22;20194;50.950;5.346;2023-03-01T08:53:43;3.80;1.00
33903;DHT22;20194;50.950;5.346;2023-03-01T08:56:09;4.10;1.00
33903;DHT22;20194;50.950;5.346;2023-03-01T08:58:36;4.10;1.00
33903;DHT22;20194;50.950;5.346;2023-03-01T09:01:07;4.40;1.00
33903;DHT22;20194;50.950;5.346;2023-03-01T09:03:33;4.50;1.00
33903;DHT22;20194;50.950;5.346;2023-03-01T09:06:03;4.70;1.00
33903;DHT22;20194;50.950;5.346;2023-03-01T09:08:30;4.90;1.00
33903;DHT22;20194;50.950;5.346;2023-03-01T09:10:56;4.70;1.00
33903;DHT22;20194;50.950;5.346;2023-03-01T09:13:22;4.80;1.00
33903;DHT22;20194;50.950;5.346;2023-03-01T09:15:50;5.10;1.00
33903;DHT22;20194;50.950;5.346;2023-03-01T09:18:16;5.20;1.00
33903;DHT22;20194;50.950;5.346;2023-03-01T09:20:42;5.50;1.00
33903;DHT22;20194;50.950;5.346;2023-03-01T09:23:08;5.70;1.00
33903;DHT22;20194;50.950;5.346;2023-03-01T09:25:34;5.90;1.00
33903;DHT22;20194;50.950;5.346;2023-03-01T09:28:00;5.80;1.00
33903;DHT22;20194;50.950;5.346;2023-03-01T09:30:26;5.80;1.00
33903;DHT22;20194;50.950;5.346;2023-03-01T09:32:52;5.90;1.00
33903;DHT22;20194;50.950;5.346;2023-03-01T09:35:18;6.10;1.00
33903;DHT22;20194;50.950;5.346;2023-03-01T09:37:45;6.10;1.00
33903;DHT22;20194;50.950;5.346;2023-03-01T09:40:17;6.30;1.00
33903;DHT22;20194;50.950;5.346;2023-03-01T09:45:33;6.50;1.00
33903;DHT22;20194;50.950;5.346;2023-03-01T09:48:00;6.70;1.00
33903;DHT22;20194;50.950;5.346;2023-03-01T09:50:33;7.10;1.00
33903;DHT22;20194;50.950;5.346;2023-03-01T09:53:11;7.00;99.90
33903;DHT22;20194;50.950;5.346;2023-03-01T09:56:02;7.20;99.90
33903;DHT22;20194;50.950;5.346;2023-03-01T10:01:34;6.90;99.90
33903;DHT22;20194;50.950;5.346;2023-03-01T10:06:52;6.80;99.90
33903;DHT22;20194;50.950;5.346;2023-03-01T10:09:21;6.80;99.90
33903;DHT22;20194;50.950;5.346;2023-03-01T10:11:53;6.90;99.90
33903;DHT22;20194;50.950;5.346;2023-03-01T10:20:17;7.10;99.90
33903;DHT22;20194;50.950;5.346;2023-03-01T10:22:45;6.50;99.90
33903;DHT22;20194;50.950;5.346;2023-03-01T10:25:20;6.80;99.90
33903;DHT22;20194;50.950;5.346;2023-03-01T10:27:53;6.90;99.90
33903;DHT22;20194;50.950;5.346;2023-03-01T10:30:32;7.30;99.90
33903;DHT22;20194;50.950;5.346;2023-03-01T10:32:59;7.50;99.90
33903;DHT22;20194;50.950;5.346;2023-03-01T10:35:27;7.50;1.00
33903;DHT22;20194;50.950;5.346;2023-03-01T10:38:13;7.60;1.00
33903;DHT22;20194;50.950;5.346;2023-03-01T10:41:06;7.80;92.60
33903;DHT22;20194;50.950;5.346;2023-03-01T10:43:47;7.10;1.00
33903;DHT22;20194;50.950;5.346;2023-03-01T10:46:33;7.30;40.00
33903;DHT22;20194;50.950;5.346;2023-03-01T10:49:18;7.30;1.00
33903;DHT22;20194;50.950;5.346;2023-03-01T10:51:46;7.10;1.00
33903;DHT22;20194;50.950;5.346;2023-03-01T10:54:32;7.10;99.90
33903;DHT22;20194;50.950;5.346;2023-03-01T10:57:00;7.40;99.90
33903;DHT22;20194;50.950;5.346;2023-03-01T10:59:32;7.70;99.90
33903;DHT22;20194;50.950;5.346;2023-03-01T11:02:28;7.90;34.10
33903;DHT22;20194;50.950;5.346;2023-03-01T11:05:00;7.90;1.00
33903;DHT22;20194;50.950;5.346;2023-03-01T11:07:27;7.80;99.90
33903;DHT22;20194;50.950;5.346;2023-03-01T11:09:53;7.80;99.90
33903;DHT22;20194;50.950;5.346;2023-03-01T11:12:20;7.90;1.00
33903;DHT22;20194;50.950;5.346;2023-03-01T11:14:55;7.90;99.90
33903;DHT22;20194;50.950;5.346;2023-03-01T11:17:28;8.10;99.90
33903;DHT22;20194;50.950;5.346;2023-03-01T11:22:34;7.70;99.90
33903;DHT22;20194;50.950;5.346;2023-03-01T11:25:01;7.60;99.90
33903;DHT22;20194;50.950;5.346;2023-03-01T11:27:38;7.80;99.90
33903;DHT22;20194;50.950;5.346;2023-03-01T11:30:47;8.10;99.90
33903;DHT22;20194;50.950;5.346;2023-03-01T11:36:00;8.10;99.90
33903;DHT22;20194;50.950;5.346;2023-03-01T11:38:28;7.90;1.00
33903;DHT22;20194;50.950;5.346;2023-03-01T11:41:18;7.40;1.00
33903;DHT22;20194;50.950;5.346;2023-03-01T11:43:59;7.70;1.00
33903;DHT22;20194;50.950;5.346;2023-03-01T12:24:54;8.70;99.90
33903;DHT22;20194;50.950;5.346;2023-03-01T12:30:16;8.50;99.90
33903;DHT22;20194;50.950;5.346;2023-03-01T12:35:28;8.40;99.90
33903;DHT22;20194;50.950;5.346;2023-03-01T12:38:22;8.50;1.00
33903;DHT22;20194;50.950;5.346;2023-03-01T12:41:06;8.70;99.90
33903;DHT22;20194;50.950;5.346;2023-03-01T12:44:04;8.40;1.00
33903;DHT22;20194;50.950;5.346;2023-03-01T12:46:49;8.20;1.00
33903;DHT22;20194;50.950;5.346;2023-03-01T12:49:31;8.00;1.00
33903;DHT22;20194;50.950;5.346;2023-03-01T12:52:24;8.00;1.00
33903;DHT22;20194;50.950;5.346;2023-03-01T12:54:53;8.20;1.00
33903;DHT22;20194;50.950;5.346;2023-03-01T12:57:25;8.30;99.90
33903;DHT22;20194;50.950;5.346;2023-03-01T13:08:46;8.40;99.90
33903;DHT22;20194;50.950;5.346;2023-03-01T13:11:21;8.40;99.90
33903;DHT22;20194;50.950;5.346;2023-03-01T13:13:48;8.40;1.00
33903;DHT22;20194;50.950;5.346;2023-03-01T13:19:15;8.40;99.90
33903;DHT22;20194;50.950;5.346;2023-03-01T13:21:42;8.40;1.00
33903;DHT22;20194;50.950;5.346;2023-03-01T13:24:35;8.20;1.00
33903;DHT22;20194;50.950;5.346;2023-03-01T13:29:45;8.30;27.30
33903;DHT22;20194;50.950;5.346;2023-03-01T13:32:25;8.30;1.00
33903;DHT22;20194;50.950;5.346;2023-03-01T13:37:45;8.40;99.90
33903;DHT22;20194;50.950;5.346;2023-03-01T13:42:51;8.20;96.10
33903;DHT22;20194;50.950;5.346;2023-03-01T13:45:40;8.00;1.00
33903;DHT22;20194;50.950;5.346;2023-03-01T13:48:27;7.90;1.00
33903;DHT22;20194;50.950;5.346;2023-03-01T13:51:05;7.60;1.00
33903;DHT22;20194;50.950;5.346;2023-03-01T13:53:36;7.60;1.00
33903;DHT22;20194;50.950;5.346;2023-03-01T13:56:08;7.60;1.00
33903;DHT22;20194;50.950;5.346;2023-03-01T13:58:55;7.80;1.00
33903;DHT22;20194;50.950;5.346;2023-03-01T14:01:32;7.80;77.80
33903;DHT22;20194;50.950;5.346;2023-03-01T14:03:59;7.90;27.90
33903;DHT22;20194;50.950;5.346;2023-03-01T14:06:27;8.00;1.00
33903;DHT22;20194;50.950;5.346;2023-03-01T14:09:09;8.00;1.00
33903;DHT22;20194;50.950;5.346;2023-03-01T14:19:23;8.00;1.00
33903;DHT22;20194;50.950;5.346;2023-03-01T14:24:43;7.90;99.90
33903;DHT22;20194;50.950;5.346;2023-03-01T14:27:13;7.90;1.00
33903;DHT22;20194;50.950;5.346;2023-03-01T14:29:40;7.90;1.00
33903;DHT22;20194;50.950;5.346;2023-03-01T14:32:19;7.70;1.00
33903;DHT22;20194;50.950;5.346;2023-03-01T14:34:48;7.80;1.00
33903;DHT22;20194;50.950;5.346;2023-03-01T14:37:27;7.80;1.00
33903;DHT22;20194;50.950;5.346;2023-03-01T14:39:54;7.80;1.00
33903;DHT22;20194;50.950;5.346;2023-03-01T14:42:22;7.90;1.00
33903;DHT22;20194;50.950;5.346;2023-03-01T14:44:53;8.00;1.00
33903;DHT22;20194;50.950;5.346;2023-03-01T14:47:31;8.00;99.90
33903;DHT22;20194;50.950;5.346;2023-03-01T14:50:07;8.00;99.90
33903;DHT22;20194;50.950;5.346;2023-03-01T14:52:39;7.90;1.00
33903;DHT22;20194;50.950;5.346;2023-03-01T14:55:25;7.90;1.00
33903;DHT22;20194;50.950;5.346;2023-03-01T14:57:51;7.90;1.00
33903;DHT22;20194;50.950;5.346;2023-03-01T15:00:29;8.00;1.00
33903;DHT22;20194;50.950;5.346;2023-03-01T15:03:00;7.80;99.90
33903;DHT22;20194;50.950;5.346;2023-03-01T15:05:29;7.90;1.00
33903;DHT22;20194;50.950;5.346;2023-03-01T15:07:57;7.90;99.90
33903;DHT22;20194;50.950;5.346;2023-03-01T15:10:34;7.90;99.90
33903;DHT22;20194;50.950;5.346;2023-03-01T15:13:14;7.80;99.90
33903;DHT22;20194;50.950;5.346;2023-03-01T15:15:47;7.70;1.00
33903;DHT22;20194;50.950;5.346;2023-03-01T15:20:46;7.80;20.80
33903;DHT22;20194;50.950;5.346;2023-03-01T15:23:24;7.70;1.00
33903;DHT22;20194;50.950;5.346;2023-03-01T15:25:52;7.70;1.00
33903;DHT22;20194;50.950;5.346;2023-03-01T15:28:28;7.70;56.10
33903;DHT22;20194;50.950;5.346;2023-03-01T15:31:06;7.70;99.90
33903;DHT22;20194;50.950;5.346;2023-03-01T15:33:38;7.60;99.90
33903;DHT22;20194;50.950;5.346;2023-03-01T15:36:33;7.70;99.90
33903;DHT22;20194;50.950;5.346;2023-03-01T15:39:02;7.60;1.00
33903;DHT22;20194;50.950;5.346;2023-03-01T15:41:47;7.70;43.30
33903;DHT22;20194;50.950;5.346;2023-03-01T15:44:28;7.70;1.00
33903;DHT22;20194;50.950;5.346;2023-03-01T15:46:54;7.80;99.90
33903;DHT22;20194;50.950;5.346;2023-03-01T15:49:38;7.60;16.20
33903;DHT22;20194;50.950;5.346;2023-03-01T15:52:21;7.60;99.90
33903;DHT22;20194;50.950;5.346;2023-03-01T15:54:55;7.60;99.90
33903;DHT22;20194;50.950;5.346;2023-03-01T15:57:21;7.60;1.00
33903;DHT22;20194;50.950;5.346;2023-03-01T15:59:46;7.70;1.00
33903;DHT22;20194;50.950;5.346;2023-03-01T16:02:12;7.70;1.00
33903;DHT22;20194;50.950;5.346;2023-03-01T16:04:38;7.60;33.40
33903;DHT22;20194;50.950;5.346;2023-03-01T16:07:05;7.60;1.00
33903;DHT22;20194;50.950;5.346;2023-03-01T16:09:31;7.40;99.90
33903;DHT22;20194;50.950;5.346;2023-03-01T16:11:57;7.40;99.90
33903;DHT22;20194;50.950;5.346;2023-03-01T16:14:23;7.30;99.90
33903;DHT22;20194;50.950;5.346;2023-03-01T16:16:49;7.30;1.00
33903;DHT22;20194;50.950;5.346;2023-03-01T16:19:15;7.40;1.00
33903;DHT22;20194;50.950;5.346;2023-03-01T16:21:42;7.30;1.00
33903;DHT22;20194;50.950;5.346;2023-03-01T16:24:09;7.30;99.90
33903;DHT22;20194;50.950;5.346;2023-03-01T16:26:36;7.40;99.90
33903;DHT22;20194;50.950;5.346;2023-03-01T16:29:03;7.50;99.90
33903;DHT22;20194;50.950;5.346;2023-03-01T16:31:29;7.50;99.90
33903;DHT22;20194;50.950;5.346;2023-03-01T16:33:57;7.60;99.90
33903;DHT22;20194;50.950;5.346;2023-03-01T16:36:24;7.60;1.00
33903;DHT22;20194;50.950;5.346;2023-03-01T16:38:51;7.60;99.90
33903;DHT22;20194;50.950;5.346;2023-03-01T16:41:19;7.40;1.00
33903;DHT22;20194;50.950;5.346;2023-03-01T16:43:45;7.30;1.00
33903;DHT22;20194;50.950;5.346;2023-03-01T16:46:22;7.20;1.00
33903;DHT22;20194;50.950;5.346;2023-03-01T16:48:48;7.10;1.00
33903;DHT22;20194;50.950;5.346;2023-03-01T16:51:14;7.00;99.90
33903;DHT22;20194;50.950;5.346;2023-03-01T16:53:40;7.00;1.00
33903;DHT22;20194;50.950;5.346;2023-03-01T16:56:08;7.00;1.00
33903;DHT22;20194;50.950;5.346;2023-03-01T16:58:36;6.90;1.00
33903;DHT22;20194;50.950;5.346;2023-03-01T17:01:28;7.00;99.90
33903;DHT22;20194;50.950;5.346;2023-03-01T17:04:03;6.90;10.50
33903;DHT22;20194;50.950;5.346;2023-03-01T17:06:29;6.90;99.90
33903;DHT22;20194;50.950;5.346;2023-03-01T17:08:54;6.90;99.90
33903;DHT22;20194;50.950;5.346;2023-03-01T17:11:20;6.90;99.90
33903;DHT22;20194;50.950;5.346;2023-03-01T17:13:46;7.00;99.90
33903;DHT22;20194;50.950;5.346;2023-03-01T17:16:14;7.10;99.90
33903;DHT22;20194;50.950;5.346;2023-03-01T17:18:41;7.00;99.90
33903;DHT22;20194;50.950;5.346;2023-03-01T17:21:09;7.00;99.90
33903;DHT22;20194;50.950;5.346;2023-03-01T17:23:36;7.00;99.90
33903;DHT22;20194;50.950;5.346;2023-03-01T17:26:02;6.90;99.90
33903;DHT22;20194;50.950;5.346;2023-03-01T17:28:30;6.90;1.00
33903;DHT22;20194;50.950;5.346;2023-03-01T17:30:58;7.00;1.00
33903;DHT22;20194;50.950;5.346;2023-03-01T17:33:24;7.10;1.00
33903;DHT22;20194;50.950;5.346;2023-03-01T17:35:49;7.10;99.90
33903;DHT22;20194;50.950;5.346;2023-03-01T17:38:16;7.10;1.00
33903;DHT22;20194;50.950;5.346;2023-03-01T17:40:43;7.10;99.90
33903;DHT22;20194;50.950;5.346;2023-03-01T17:43:12;7.10;1.00
33903;DHT22;20194;50.950;5.346;2023-03-01T17:45:38;7.20;99.90
33903;DHT22;20194;50.950;5.346;2023-03-01T17:48:05;7.30;99.90
33903;DHT22;20194;50.950;5.346;2023-03-01T17:50:32;7.10;99.90
33903;DHT22;20194;50.950;5.346;2023-03-01T17:52:58;7.20;99.90
33903;DHT22;20194;50.950;5.346;2023-03-01T17:55:24;7.20;99.90
33903;DHT22;20194;50.950;5.346;2023-03-01T17:57:49;7.20;99.90
33903;DHT22;20194;50.950;5.346;2023-03-01T18:00:16;7.30;99.90
33903;DHT22;20194;50.950;5.346;2023-03-01T18:02:43;7.20;99.90
33903;DHT22;20194;50.950;5.346;2023-03-01T18:05:09;7.20;99.90
33903;DHT22;20194;50.950;5.346;2023-03-01T18:07:35;7.20;99.90